createdAt,value
2023-04-29T00:00:14.646Z,1133.00
2023-04-29T00:01:14.700Z,1136.00
2023-04-29T00:02:14.772Z,1129.00
2023-04-29T00:03:14.915Z,1133.00
2023-04-29T00:04:15.012Z,1131.00
2023-04-29T00:05:15.114Z,1136.00
2023-04-29T00:06:15.325Z,1132.00
2023-04-29T00:07:14.992Z,1128.00
2023-04-29T00:08:14.876Z,1131.00
2023-04-29T00:09:14.977Z,1136.00
2023-04-29T00:10:14.949Z,1131.00
2023-04-29T00:11:15.001Z,1133.00
2023-04-29T00:12:15.034Z,1123.00
2023-04-29T00:13:15.076Z,1126.00
2023-04-29T00:14:15.105Z,1133.00
2023-04-29T00:15:15.137Z,1128.00
2023-04-29T00:16:15.290Z,1131.00
2023-04-29T00:17:15.272Z,1133.00
2023-04-29T00:18:15.214Z,1137.00
2023-04-29T00:19:15.275Z,1145.00
2023-04-29T00:20:15.290Z,1141.00
2023-04-29T00:21:15.449Z,1131.00
2023-04-29T00:22:15.353Z,1136.00
2023-04-29T00:23:15.429Z,1136.00
2023-04-29T00:24:15.379Z,1134.00
2023-04-29T00:25:15.452Z,1142.00
2023-04-29T00:26:15.510Z,1138.00
2023-04-29T00:27:15.498Z,1130.00
2023-04-29T00:28:15.564Z,1127.00
2023-04-29T00:29:15.586Z,1133.00
2023-04-29T00:30:15.587Z,1122.00
2023-04-29T00:31:15.678Z,1125.00
2023-04-29T00:32:15.629Z,1132.00
2023-04-29T00:33:15.674Z,1130.00
2023-04-29T00:34:15.665Z,1133.00
2023-04-29T00:35:16.460Z,1146.00
2023-04-29T00:36:15.766Z,1141.00
2023-04-29T00:37:15.784Z,1133.00
2023-04-29T00:38:15.799Z,1132.00
2023-04-29T00:39:15.824Z,1128.00
2023-04-29T00:40:15.852Z,1142.00
2023-04-29T00:41:15.908Z,1136.00
2023-04-29T00:42:15.942Z,1138.00
2023-04-29T00:43:15.989Z,1132.00
2023-04-29T00:44:16.013Z,1126.00
2023-04-29T00:45:16.031Z,1132.00
2023-04-29T00:46:16.518Z,1134.00
2023-04-29T00:47:16.107Z,1138.00
2023-04-29T00:48:16.137Z,1134.00
2023-04-29T00:49:16.129Z,1132.00
2023-04-29T00:50:16.212Z,1136.00
2023-04-29T00:51:16.439Z,1132.00
2023-04-29T00:52:16.246Z,1136.00
2023-04-29T00:53:16.242Z,1131.00
2023-04-29T00:54:16.259Z,1137.00
2023-04-29T00:55:16.322Z,1129.00
2023-04-29T00:56:16.483Z,1142.00
2023-04-29T00:57:16.375Z,1129.00
2023-04-29T00:58:16.383Z,1136.00
2023-04-29T00:59:16.425Z,1139.00
2023-04-29T01:00:16.473Z,1145.00
2023-04-29T01:01:16.569Z,1133.00
2023-04-29T01:02:16.492Z,1133.00
2023-04-29T01:03:16.724Z,1134.00
2023-04-29T01:04:16.795Z,1133.00
2023-04-29T01:05:16.624Z,1134.00
2023-04-29T01:06:16.974Z,1139.00
2023-04-29T01:07:16.631Z,1144.00
2023-04-29T01:08:18.412Z,1137.00
2023-04-29T01:09:16.670Z,1134.00
2023-04-29T01:10:16.725Z,1120.00
2023-04-29T01:11:17.480Z,1131.00
2023-04-29T01:12:16.754Z,1138.00
2023-04-29T01:13:16.791Z,1132.00
2023-04-29T01:14:16.795Z,1130.00
2023-04-29T01:15:16.842Z,1137.00
2023-04-29T01:16:17.097Z,1137.00
2023-04-29T01:17:16.925Z,1139.00
2023-04-29T01:18:16.920Z,1136.00
2023-04-29T01:19:16.933Z,1129.00
2023-04-29T01:20:16.959Z,1130.00
2023-04-29T01:21:17.005Z,1138.00
2023-04-29T01:22:17.019Z,1130.00
2023-04-29T01:23:17.018Z,1130.00
2023-04-29T01:24:17.062Z,1127.00
2023-04-29T01:25:17.078Z,1133.00
2023-04-29T01:26:17.129Z,1131.00
2023-04-29T01:27:17.133Z,1125.00
2023-04-29T01:28:17.149Z,1118.00
2023-04-29T01:29:17.168Z,1133.00
2023-04-29T01:30:17.216Z,1140.00
2023-04-29T01:31:17.508Z,1127.00
2023-04-29T01:32:17.272Z,1132.00
2023-04-29T01:33:17.270Z,1128.00
2023-04-29T01:34:17.306Z,1132.00
2023-04-29T01:35:17.349Z,1125.00
2023-04-29T01:36:17.362Z,1129.00
2023-04-29T01:37:17.356Z,1116.00
2023-04-29T01:38:17.363Z,1131.00
2023-04-29T01:39:17.434Z,1127.00
2023-04-29T01:40:17.443Z,1134.00
2023-04-29T01:41:17.498Z,1115.00
2023-04-29T01:42:17.503Z,1131.00
2023-04-29T01:43:17.504Z,1125.00
2023-04-29T01:44:17.524Z,1126.00
2023-04-29T01:45:17.565Z,1129.00
2023-04-29T01:46:17.669Z,1136.00
2023-04-29T01:47:17.628Z,1131.00
2023-04-29T01:48:17.647Z,1127.00
2023-04-29T01:49:17.675Z,1120.00
2023-04-29T01:50:17.751Z,1121.00
2023-04-29T01:51:18.016Z,1122.00
2023-04-29T01:52:17.750Z,1123.00
2023-04-29T01:53:17.796Z,1133.00
2023-04-29T01:54:17.837Z,1129.00
2023-04-29T01:55:17.859Z,1132.00
2023-04-29T01:56:17.902Z,1133.00
2023-04-29T01:57:18.525Z,1133.00
2023-04-29T01:58:17.996Z,1136.00
2023-04-29T01:59:17.953Z,1129.00
2023-04-29T02:00:18.009Z,1117.00
2023-04-29T02:01:18.138Z,1126.00
2023-04-29T02:02:18.155Z,1136.00
2023-04-29T02:03:18.227Z,1133.00
2023-04-29T02:04:18.109Z,1137.00
2023-04-29T02:05:18.171Z,1131.00
2023-04-29T02:06:18.166Z,1134.00
2023-04-29T02:07:18.215Z,1133.00
2023-04-29T02:08:18.991Z,1124.00
2023-04-29T02:09:18.308Z,1131.00
2023-04-29T02:10:18.268Z,1137.00
2023-04-29T02:11:18.514Z,1130.00
2023-04-29T02:12:18.329Z,1127.00
2023-04-29T02:13:18.355Z,1130.00
2023-04-29T02:14:18.387Z,1137.00
2023-04-29T02:15:18.377Z,1128.00
2023-04-29T02:16:18.470Z,1121.00
2023-04-29T02:17:18.577Z,1140.00
2023-04-29T02:18:18.460Z,1132.00
2023-04-29T02:19:18.550Z,1129.00
2023-04-29T02:20:18.534Z,1129.00
2023-04-29T02:21:18.544Z,1131.00
2023-04-29T02:22:18.597Z,1127.00
2023-04-29T02:23:18.604Z,1128.00
2023-04-29T02:24:18.657Z,1136.00
2023-04-29T02:25:18.692Z,1130.00
2023-04-29T02:26:18.730Z,1123.00
2023-04-29T02:27:18.720Z,1131.00
2023-04-29T02:28:18.757Z,1124.00
2023-04-29T02:29:18.854Z,1127.00
2023-04-29T02:30:18.854Z,1118.00
2023-04-29T02:31:18.927Z,1129.00
2023-04-29T02:32:18.995Z,1130.00
2023-04-29T02:33:18.930Z,1134.00
2023-04-29T02:34:18.986Z,1127.00
2023-04-29T02:35:19.014Z,1133.00
2023-04-29T02:36:19.051Z,1131.00
2023-04-29T02:37:19.516Z,1125.00
2023-04-29T02:38:19.151Z,1133.00
2023-04-29T02:39:19.179Z,1130.00
2023-04-29T02:40:20.008Z,1135.00
2023-04-29T02:41:19.263Z,1127.00
2023-04-29T02:42:19.284Z,1129.00
2023-04-29T02:43:19.354Z,1127.00
2023-04-29T02:44:19.356Z,1134.00
2023-04-29T02:45:19.400Z,1139.00
2023-04-29T02:46:19.479Z,1135.00
2023-04-29T02:47:19.476Z,1130.00
2023-04-29T02:48:19.499Z,1126.00
2023-04-29T02:49:19.547Z,1129.00
2023-04-29T02:50:19.606Z,1142.00
2023-04-29T02:51:19.606Z,1135.00
2023-04-29T02:52:19.636Z,1124.00
2023-04-29T02:53:19.658Z,1129.00
2023-04-29T02:54:19.724Z,1139.00
2023-04-29T02:55:19.744Z,1136.00
2023-04-29T02:56:19.736Z,1128.00
2023-04-29T02:57:19.858Z,1130.00
2023-04-29T02:58:19.815Z,1129.00
2023-04-29T02:59:19.873Z,1113.00
2023-04-29T03:00:19.916Z,1118.00
2023-04-29T03:01:19.963Z,1133.00
2023-04-29T03:02:20.068Z,1133.00
2023-04-29T03:03:20.170Z,1133.00
2023-04-29T03:04:20.146Z,1130.00
2023-04-29T03:05:20.098Z,1132.00
2023-04-29T03:06:20.070Z,1130.00
2023-04-29T03:07:20.163Z,1124.00
2023-04-29T03:08:20.160Z,1136.00
2023-04-29T03:09:20.205Z,1133.00
2023-04-29T03:10:20.296Z,1131.00
2023-04-29T03:11:20.303Z,1133.00
2023-04-29T03:12:20.328Z,1128.00
2023-04-29T03:13:20.436Z,1132.00
2023-04-29T03:14:20.425Z,1130.00
2023-04-29T03:15:20.516Z,1131.00
2023-04-29T03:16:20.561Z,1120.00
2023-04-29T03:17:20.525Z,1118.00
2023-04-29T03:18:20.571Z,1122.00
2023-04-29T03:19:20.575Z,1123.00
2023-04-29T03:20:20.627Z,1130.00
2023-04-29T03:21:20.678Z,1131.00
2023-04-29T03:22:20.694Z,1119.00
2023-04-29T03:23:20.758Z,1130.00
2023-04-29T03:24:20.744Z,1123.00
2023-04-29T03:25:20.791Z,1128.00
2023-04-29T03:26:20.883Z,1129.00
2023-04-29T03:27:20.878Z,1133.00
2023-04-29T03:28:20.909Z,1127.00
2023-04-29T03:29:21.001Z,1130.00
2023-04-29T03:30:20.984Z,1127.00
2023-04-29T03:31:21.074Z,1114.00
2023-04-29T03:32:21.104Z,1121.00
2023-04-29T03:33:21.116Z,1118.00
2023-04-29T03:34:21.128Z,1132.00
2023-04-29T03:35:21.146Z,1130.00
2023-04-29T03:36:21.176Z,1115.00
2023-04-29T03:37:21.235Z,1129.00
2023-04-29T03:38:21.276Z,1132.00
2023-04-29T03:39:21.289Z,1118.00
2023-04-29T03:40:21.367Z,1131.00
2023-04-29T03:41:21.401Z,1123.00
2023-04-29T03:42:21.479Z,1115.00
2023-04-29T03:43:21.489Z,1123.00
2023-04-29T03:44:21.536Z,1119.00
2023-04-29T03:45:21.592Z,1117.00
2023-04-29T03:46:21.659Z,1125.00
2023-04-29T03:47:22.090Z,1128.00
2023-04-29T03:48:21.722Z,1123.00
2023-04-29T03:49:21.733Z,1125.00
2023-04-29T03:50:21.772Z,1115.00
2023-04-29T03:51:21.849Z,1131.00
2023-04-29T03:52:21.813Z,1123.00
2023-04-29T03:53:21.900Z,1129.00
2023-04-29T03:54:21.919Z,1119.00
2023-04-29T03:55:21.985Z,1126.00
2023-04-29T03:56:21.971Z,1126.00
2023-04-29T03:57:22.012Z,1119.00
2023-04-29T03:58:22.043Z,1121.00
2023-04-29T03:59:22.103Z,1123.00
2023-04-29T04:00:22.106Z,1119.00
2023-04-29T04:01:22.213Z,1128.00
2023-04-29T04:02:22.645Z,1128.00
2023-04-29T04:03:22.319Z,1120.00
2023-04-29T04:04:22.432Z,1124.00
2023-04-29T04:05:22.279Z,1125.00
2023-04-29T04:06:22.404Z,1121.00
2023-04-29T04:07:22.413Z,1132.00
2023-04-29T04:08:22.391Z,1123.00
2023-04-29T04:09:22.418Z,1116.00
2023-04-29T04:10:22.519Z,1124.00
2023-04-29T04:11:22.527Z,1126.00
2023-04-29T04:12:22.576Z,1124.00
2023-04-29T04:13:22.650Z,1134.00
2023-04-29T04:14:22.679Z,1136.00
2023-04-29T04:15:22.745Z,1125.00
2023-04-29T04:16:22.756Z,1116.00
2023-04-29T04:17:23.051Z,1117.00
2023-04-29T04:18:22.871Z,1125.00
2023-04-29T04:19:22.962Z,1123.00
2023-04-29T04:20:23.011Z,1123.00
2023-04-29T04:21:23.008Z,1129.00
2023-04-29T04:22:23.016Z,1117.00
2023-04-29T04:23:23.082Z,1117.00
2023-04-29T04:24:23.197Z,1126.00
2023-04-29T04:25:23.209Z,1131.00
2023-04-29T04:26:23.241Z,1129.00
2023-04-29T04:27:23.317Z,1124.00
2023-04-29T04:28:23.354Z,1117.00
2023-04-29T04:29:23.379Z,1117.00
2023-04-29T04:30:23.436Z,1119.00
2023-04-29T04:31:23.477Z,1115.00
2023-04-29T04:32:23.689Z,1116.00
2023-04-29T04:33:23.577Z,1108.00
2023-04-29T04:34:23.605Z,1117.00
2023-04-29T04:35:23.683Z,1119.00
2023-04-29T04:36:23.715Z,1122.00
2023-04-29T04:37:24.069Z,1116.00
2023-04-29T04:38:23.802Z,1122.00
2023-04-29T04:39:23.852Z,1106.00
2023-04-29T04:40:23.885Z,1112.00
2023-04-29T04:41:23.923Z,1115.00
2023-04-29T04:42:24.043Z,1125.00
2023-04-29T04:43:24.048Z,1110.00
2023-04-29T04:44:24.053Z,1111.00
2023-04-29T04:45:24.198Z,1116.00
2023-04-29T04:46:24.170Z,1104.00
2023-04-29T04:47:24.261Z,1113.00
2023-04-29T04:48:24.269Z,1120.00
2023-04-29T04:49:24.287Z,1108.00
2023-04-29T04:50:24.325Z,1118.00
2023-04-29T04:51:24.403Z,1112.00
2023-04-29T04:52:24.448Z,1119.00
2023-04-29T04:53:24.526Z,1111.00
2023-04-29T04:54:24.527Z,1120.00
2023-04-29T04:55:24.608Z,1123.00
2023-04-29T04:56:24.639Z,1116.00
2023-04-29T04:57:24.648Z,1111.00
2023-04-29T04:58:24.770Z,1117.00
2023-04-29T04:59:24.768Z,1117.00
2023-04-29T05:00:24.833Z,1112.00
2023-04-29T05:01:24.948Z,1105.00
2023-04-29T05:02:25.097Z,1127.00
2023-04-29T05:03:25.201Z,1110.00
2023-04-29T05:04:25.258Z,1106.00
2023-04-29T05:05:25.057Z,1129.00
2023-04-29T05:06:25.101Z,1107.00
2023-04-29T05:07:25.172Z,1120.00
2023-04-29T05:08:25.192Z,1109.00
2023-04-29T05:09:25.244Z,1108.00
2023-04-29T05:10:25.281Z,1148.00
2023-04-29T05:11:25.322Z,1120.00
2023-04-29T05:12:25.580Z,1109.00
2023-04-29T05:13:25.417Z,1115.00
2023-04-29T05:14:25.548Z,1126.00
2023-04-29T05:15:25.479Z,1121.00
2023-04-29T05:16:25.540Z,1109.00
2023-04-29T05:17:26.080Z,1111.00
2023-04-29T05:18:25.626Z,1151.00
2023-04-29T05:19:25.643Z,1112.00
2023-04-29T05:20:25.677Z,1124.00
2023-04-29T05:21:25.746Z,1141.00
2023-04-29T05:22:25.766Z,1118.00
2023-04-29T05:23:26.601Z,1117.00
2023-04-29T05:24:25.872Z,1119.00
2023-04-29T05:25:25.906Z,1124.00
2023-04-29T05:26:25.971Z,1108.00
2023-04-29T05:27:26.083Z,1123.00
2023-04-29T05:28:28.130Z,1116.00
2023-04-29T05:29:26.101Z,1123.00
2023-04-29T05:30:26.107Z,1147.00
2023-04-29T05:31:26.265Z,1155.00
2023-04-29T05:32:26.245Z,1116.00
2023-04-29T05:33:26.231Z,1127.00
2023-04-29T05:34:26.242Z,1125.00
2023-04-29T05:35:26.266Z,1145.00
2023-04-29T05:36:26.341Z,1139.00
2023-04-29T05:37:26.375Z,1128.00
2023-04-29T05:38:26.429Z,1128.00
2023-04-29T05:39:26.475Z,1147.00
2023-04-29T05:40:26.530Z,1117.00
2023-04-29T05:41:26.580Z,1136.00
2023-04-29T05:42:26.619Z,1161.00
2023-04-29T05:43:26.674Z,1115.00
2023-04-29T05:44:26.693Z,1123.00
2023-04-29T05:45:26.746Z,1139.00
2023-04-29T05:46:26.872Z,1130.00
2023-04-29T05:47:27.093Z,1134.00
2023-04-29T05:48:26.884Z,1120.00
2023-04-29T05:49:26.900Z,1131.00
2023-04-29T05:50:26.958Z,1111.00
2023-04-29T05:51:27.006Z,1138.00
2023-04-29T05:52:27.071Z,1151.00
2023-04-29T05:53:27.119Z,1154.00
2023-04-29T05:54:27.146Z,1154.00
2023-04-29T05:55:27.189Z,1156.00
2023-04-29T05:56:27.277Z,1143.00
2023-04-29T05:57:27.615Z,1134.00
2023-04-29T05:58:27.366Z,1135.00
2023-04-29T05:59:27.433Z,1133.00
2023-04-29T06:00:27.427Z,1146.00
2023-04-29T06:01:27.500Z,1160.00
2023-04-29T06:02:27.631Z,1159.00
2023-04-29T06:03:27.790Z,1158.00
2023-04-29T06:04:27.856Z,1124.00
2023-04-29T06:05:28.967Z,1146.00
2023-04-29T06:06:27.675Z,1131.00
2023-04-29T06:07:28.105Z,1144.00
2023-04-29T06:08:27.748Z,1147.00
2023-04-29T06:09:28.351Z,1163.00
2023-04-29T06:10:27.793Z,1157.00
2023-04-29T06:11:27.864Z,1133.00
2023-04-29T06:12:27.977Z,1130.00
2023-04-29T06:13:27.988Z,1140.00
2023-04-29T06:14:28.031Z,1138.00
2023-04-29T06:15:28.097Z,1161.00
2023-04-29T06:16:28.115Z,1125.00
2023-04-29T06:17:28.100Z,1116.00
2023-04-29T06:18:28.178Z,1123.00
2023-04-29T06:19:28.185Z,1134.00
2023-04-29T06:20:28.264Z,1148.00
2023-04-29T06:21:28.280Z,1130.00
2023-04-29T06:22:28.252Z,1133.00
2023-04-29T06:23:28.333Z,1114.00
2023-04-29T06:24:29.055Z,1146.00
2023-04-29T06:25:28.393Z,1126.00
2023-04-29T06:26:28.451Z,1136.00
2023-04-29T06:27:28.548Z,1128.00
2023-04-29T06:28:28.545Z,1137.00
2023-04-29T06:29:28.551Z,1116.00
2023-04-29T06:30:28.622Z,1141.00
2023-04-29T06:31:28.718Z,1123.00
2023-04-29T06:32:28.741Z,1126.00
2023-04-29T06:33:29.619Z,1130.00
2023-04-29T06:34:28.786Z,1133.00
2023-04-29T06:35:28.833Z,1116.00
2023-04-29T06:36:28.853Z,1117.00
2023-04-29T06:37:29.114Z,1125.00
2023-04-29T06:38:28.913Z,1115.00
2023-04-29T06:39:28.965Z,1122.00
2023-04-29T06:40:28.975Z,1122.00
2023-04-29T06:41:29.041Z,1122.00
2023-04-29T06:42:29.083Z,1120.00
2023-04-29T06:43:29.082Z,1126.00
2023-04-29T06:44:29.115Z,1119.00
2023-04-29T06:45:29.166Z,1121.00
2023-04-29T06:46:29.296Z,1127.00
2023-04-29T06:47:29.209Z,1113.00
2023-04-29T06:48:29.218Z,1117.00
2023-04-29T06:49:29.265Z,1124.00
2023-04-29T06:50:29.237Z,1129.00
2023-04-29T06:51:29.297Z,1128.00
2023-04-29T06:52:30.072Z,1132.00
2023-04-29T06:53:29.371Z,1125.00
2023-04-29T06:54:29.357Z,1129.00
2023-04-29T06:55:29.423Z,1126.00
2023-04-29T06:56:29.441Z,1123.00
2023-04-29T06:57:29.475Z,1127.00
2023-04-29T06:58:29.450Z,1131.00
2023-04-29T06:59:29.492Z,1135.00
2023-04-29T07:00:29.583Z,1121.00
2023-04-29T07:01:29.619Z,1123.00
2023-04-29T07:02:29.645Z,1124.00
2023-04-29T07:03:29.703Z,1135.00
2023-04-29T07:04:29.635Z,1124.00
2023-04-29T07:05:29.604Z,1126.00
2023-04-29T07:06:29.657Z,1125.00
2023-04-29T07:07:29.658Z,1127.00
2023-04-29T07:08:29.708Z,1123.00
2023-04-29T07:09:30.604Z,1119.00
2023-04-29T07:10:29.746Z,1128.00
2023-04-29T07:11:29.793Z,1117.00
2023-04-29T07:12:29.852Z,1122.00
2023-04-29T07:13:29.834Z,1121.00
2023-04-29T07:14:29.825Z,1128.00
2023-04-29T07:15:29.875Z,1138.00
2023-04-29T07:16:29.963Z,1125.00
2023-04-29T07:17:30.052Z,1118.00
2023-04-29T07:18:29.971Z,1108.00
2023-04-29T07:19:29.974Z,1114.00
2023-04-29T07:20:30.032Z,1116.00
2023-04-29T07:21:30.056Z,1116.00
2023-04-29T07:22:30.066Z,1123.00
2023-04-29T07:23:30.122Z,1116.00
2023-04-29T07:24:30.106Z,1123.00
2023-04-29T07:25:30.160Z,1116.00
2023-04-29T07:26:30.162Z,1113.00
2023-04-29T07:27:30.194Z,1113.00
2023-04-29T07:28:30.230Z,1122.00
2023-04-29T07:29:30.277Z,1128.00
2023-04-29T07:30:30.248Z,1121.00
2023-04-29T07:31:30.327Z,1122.00
2023-04-29T07:32:30.370Z,1121.00
2023-04-29T07:33:30.331Z,1126.00
2023-04-29T07:34:30.381Z,1132.00
2023-04-29T07:35:30.425Z,1134.00
2023-04-29T07:36:30.437Z,1126.00
2023-04-29T07:37:30.468Z,1129.00
2023-04-29T07:38:30.525Z,1117.00
2023-04-29T07:39:30.547Z,1126.00
2023-04-29T07:40:30.549Z,1120.00
2023-04-29T07:41:30.553Z,1121.00
2023-04-29T07:42:30.610Z,1134.00
2023-04-29T07:43:30.607Z,1137.00
2023-04-29T07:44:30.684Z,1143.00
2023-04-29T07:45:30.686Z,1126.00
2023-04-29T07:46:30.746Z,1119.00
2023-04-29T07:47:31.125Z,1127.00
2023-04-29T07:48:30.705Z,1134.00
2023-04-29T07:49:30.716Z,1119.00
2023-04-29T07:50:30.770Z,1129.00
2023-04-29T07:51:30.758Z,1130.00
2023-04-29T07:52:31.112Z,1125.00
2023-04-29T07:53:30.902Z,1120.00
2023-04-29T07:54:31.609Z,1129.00
2023-04-29T07:55:30.871Z,1119.00
2023-04-29T07:56:30.908Z,1127.00
2023-04-29T07:57:30.931Z,1133.00
2023-04-29T07:58:30.931Z,1128.00
2023-04-29T07:59:30.949Z,1125.00
2023-04-29T08:00:30.990Z,1119.00
2023-04-29T08:01:31.002Z,1125.00
2023-04-29T08:02:31.194Z,1129.00
2023-04-29T08:03:31.210Z,1123.00
2023-04-29T08:04:31.227Z,1130.00
2023-04-29T08:05:31.481Z,1130.00
2023-04-29T08:06:31.103Z,1130.00
2023-04-29T08:07:31.608Z,1130.00
2023-04-29T08:08:31.161Z,1114.00
2023-04-29T08:09:31.153Z,1121.00
2023-04-29T08:10:31.163Z,1120.00
2023-04-29T08:11:31.172Z,1116.00
2023-04-29T08:12:31.235Z,1124.00
2023-04-29T08:13:31.642Z,1119.00
2023-04-29T08:14:31.260Z,1114.00
2023-04-29T08:15:31.305Z,1116.00
2023-04-29T08:16:31.361Z,1127.00
2023-04-29T08:17:31.533Z,1121.00
2023-04-29T08:18:31.338Z,1115.00
2023-04-29T08:19:31.377Z,1126.00
2023-04-29T08:20:31.369Z,1129.00
2023-04-29T08:21:31.411Z,1120.00
2023-04-29T08:22:31.357Z,1125.00
2023-04-29T08:23:31.622Z,1122.00
2023-04-29T08:24:31.414Z,1124.00
2023-04-29T08:25:31.429Z,1124.00
2023-04-29T08:26:31.440Z,1129.00
2023-04-29T08:27:31.439Z,1114.00
2023-04-29T08:28:31.604Z,1112.00
2023-04-29T08:29:31.510Z,1107.00
2023-04-29T08:30:31.487Z,1122.00
2023-04-29T08:31:31.541Z,1126.00
2023-04-29T08:32:31.505Z,1123.00
2023-04-29T08:33:31.604Z,1121.00
2023-04-29T08:34:31.512Z,1125.00
2023-04-29T08:35:31.544Z,1114.00
2023-04-29T08:36:31.544Z,1120.00
2023-04-29T08:37:31.568Z,1121.00
2023-04-29T08:38:31.612Z,1113.00
2023-04-29T08:39:31.594Z,1114.00
2023-04-29T08:40:31.600Z,1122.00
2023-04-29T08:41:31.644Z,1116.00
2023-04-29T08:42:31.647Z,1107.00
2023-04-29T08:43:32.161Z,1105.00
2023-04-29T08:44:31.649Z,1106.00
2023-04-29T08:45:31.831Z,1119.00
2023-04-29T08:46:31.650Z,1132.00
2023-04-29T08:47:31.777Z,1129.00
2023-04-29T08:48:32.231Z,1117.00
2023-04-29T08:49:31.743Z,1119.00
2023-04-29T08:50:31.712Z,1108.00
2023-04-29T08:51:31.771Z,1114.00
2023-04-29T08:52:31.713Z,1110.00
2023-04-29T08:53:31.777Z,1125.00
2023-04-29T08:54:31.767Z,1116.00
2023-04-29T08:55:31.754Z,1116.00
2023-04-29T08:56:31.795Z,1114.00
2023-04-29T08:57:31.791Z,1110.00
2023-04-29T08:58:31.824Z,1114.00
2023-04-29T08:59:31.804Z,1117.00
2023-04-29T09:00:31.846Z,1122.00
2023-04-29T09:01:31.894Z,1121.00
2023-04-29T09:02:31.903Z,1112.00
2023-04-29T09:03:31.943Z,1116.00
2023-04-29T09:04:31.926Z,1110.00
2023-04-29T09:05:31.882Z,1112.00
2023-04-29T09:06:31.908Z,1118.00
2023-04-29T09:07:31.909Z,1114.00
2023-04-29T09:08:32.218Z,1110.00
2023-04-29T09:09:31.956Z,1107.00
2023-04-29T09:10:31.988Z,1117.00
2023-04-29T09:11:31.951Z,1122.00
2023-04-29T09:12:32.007Z,1110.00
2023-04-29T09:13:32.030Z,1115.00
2023-04-29T09:14:32.030Z,1122.00
2023-04-29T09:15:32.037Z,1127.00
2023-04-29T09:16:32.087Z,1116.00
2023-04-29T09:17:32.102Z,1112.00
2023-04-29T09:18:32.139Z,1122.00
2023-04-29T09:19:32.098Z,1123.00
2023-04-29T09:20:32.157Z,1129.00
2023-04-29T09:21:32.111Z,1123.00
2023-04-29T09:22:32.116Z,1120.00
2023-04-29T09:23:32.665Z,1118.00
2023-04-29T09:24:32.161Z,1119.00
2023-04-29T09:25:32.200Z,1110.00
2023-04-29T09:26:32.189Z,1126.00
2023-04-29T09:27:32.226Z,1110.00
2023-04-29T09:28:32.647Z,1115.00
2023-04-29T09:29:32.240Z,1120.00
2023-04-29T09:30:32.214Z,1115.00
2023-04-29T09:31:32.306Z,1113.00
2023-04-29T09:32:32.248Z,1119.00
2023-04-29T09:33:32.707Z,1124.00
2023-04-29T09:34:32.264Z,1119.00
2023-04-29T09:35:32.282Z,1124.00
2023-04-29T09:36:32.269Z,1126.00
2023-04-29T09:37:32.295Z,1139.00
2023-04-29T09:38:32.287Z,1124.00
2023-04-29T09:39:32.308Z,1132.00
2023-04-29T09:40:32.482Z,1125.00
2023-04-29T09:41:32.325Z,1117.00
2023-04-29T09:42:32.328Z,1126.00
2023-04-29T09:43:32.387Z,1115.00
2023-04-29T09:44:34.309Z,1115.00
2023-04-29T09:45:32.376Z,1122.00
2023-04-29T09:46:32.426Z,1122.00
2023-04-29T09:47:32.378Z,1128.00
2023-04-29T09:48:32.342Z,1122.00
2023-04-29T09:49:32.366Z,1136.00
2023-04-29T09:50:32.406Z,1118.00
2023-04-29T09:51:32.415Z,1121.00
2023-04-29T09:52:32.395Z,1114.00
2023-04-29T09:53:32.699Z,1118.00
2023-04-29T09:54:32.401Z,1125.00
2023-04-29T09:55:32.393Z,1126.00
2023-04-29T09:56:32.437Z,1126.00
2023-04-29T09:57:32.433Z,1131.00
2023-04-29T09:58:32.652Z,1127.00
2023-04-29T09:59:32.472Z,1125.00
2023-04-29T10:00:32.470Z,1131.00
2023-04-29T10:01:32.536Z,1124.00
2023-04-29T10:02:32.542Z,1134.00
2023-04-29T10:03:32.771Z,1116.00
2023-04-29T10:04:32.513Z,1122.00
2023-04-29T10:05:32.534Z,1118.00
2023-04-29T10:06:32.566Z,1111.00
2023-04-29T10:07:32.547Z,1129.00
2023-04-29T10:08:32.589Z,1123.00
2023-04-29T10:09:32.567Z,1125.00
2023-04-29T10:10:32.571Z,1135.00
2023-04-29T10:11:32.576Z,1127.00
2023-04-29T10:12:32.583Z,1128.00
2023-04-29T10:13:32.586Z,1134.00
2023-04-29T10:14:32.597Z,1122.00
2023-04-29T10:15:32.682Z,1126.00
2023-04-29T10:16:32.618Z,1129.00
2023-04-29T10:17:32.627Z,1127.00
2023-04-29T10:18:32.652Z,1132.00
2023-04-29T10:19:32.586Z,1125.00
2023-04-29T10:20:32.593Z,1120.00
2023-04-29T10:21:32.608Z,1125.00
2023-04-29T10:22:32.620Z,1127.00
2023-04-29T10:23:32.592Z,1134.00
2023-04-29T10:24:32.623Z,1134.00
2023-04-29T10:25:32.602Z,1140.00
2023-04-29T10:26:32.625Z,1124.00
2023-04-29T10:27:32.621Z,1136.00
2023-04-29T10:28:32.620Z,1132.00
2023-04-29T10:29:32.651Z,1127.00
2023-04-29T10:30:32.613Z,1136.00
2023-04-29T10:31:32.707Z,1140.00
2023-04-29T10:32:43.432Z,1136.00
2023-04-29T10:33:33.726Z,1137.00
2023-04-29T10:34:32.634Z,1139.00
2023-04-29T10:35:32.598Z,1138.00
2023-04-29T10:36:32.622Z,1138.00
2023-04-29T10:37:32.623Z,1141.00
2023-04-29T10:38:32.582Z,1137.00
2023-04-29T10:39:32.610Z,1137.00
2023-04-29T10:40:32.584Z,1134.00
2023-04-29T10:41:32.580Z,1142.00
2023-04-29T10:42:32.570Z,1135.00
2023-04-29T10:43:32.552Z,1149.00
2023-04-29T10:44:32.604Z,1152.00
2023-04-29T10:45:32.650Z,1151.00
2023-04-29T10:46:32.663Z,1135.00
2023-04-29T10:47:32.543Z,1150.00
2023-04-29T10:48:32.712Z,1146.00
2023-04-29T10:49:32.550Z,1152.00
2023-04-29T10:50:32.516Z,1145.00
2023-04-29T10:51:32.506Z,1149.00
2023-04-29T10:52:32.501Z,1144.00
2023-04-29T10:53:32.471Z,1156.00
2023-04-29T10:54:32.482Z,1155.00
2023-04-29T10:55:32.478Z,1159.00
2023-04-29T10:56:32.500Z,1143.00
2023-04-29T10:57:32.502Z,1154.00
2023-04-29T10:58:32.449Z,1159.00
2023-04-29T10:59:32.454Z,1150.00
2023-04-29T11:00:32.420Z,1144.00
2023-04-29T11:01:32.440Z,1151.00
2023-04-29T11:02:32.511Z,1147.00
2023-04-29T11:03:32.503Z,1154.00
2023-04-29T11:04:32.450Z,1159.00
2023-04-29T11:05:32.392Z,1156.00
2023-04-29T11:06:32.428Z,1143.00
2023-04-29T11:07:32.397Z,1157.00
2023-04-29T11:08:32.367Z,1151.00
2023-04-29T11:09:32.393Z,1160.00
2023-04-29T11:10:32.385Z,1169.00
2023-04-29T11:11:32.362Z,1165.00
2023-04-29T11:12:32.391Z,1156.00
2023-04-29T11:13:32.412Z,1143.00
2023-04-29T11:14:32.349Z,1157.00
2023-04-29T11:15:32.311Z,1158.00
2023-04-29T11:16:32.382Z,1156.00
2023-04-29T11:17:32.372Z,1163.00
2023-04-29T11:18:32.308Z,1172.00
2023-04-29T11:19:32.331Z,1153.00
2023-04-29T11:20:32.364Z,1156.00
2023-04-29T11:21:32.300Z,1164.00
2023-04-29T11:22:32.291Z,1165.00
2023-04-29T11:23:32.284Z,1171.00
2023-04-29T11:24:32.286Z,1167.00
2023-04-29T11:25:32.308Z,1163.00
2023-04-29T11:26:32.253Z,1164.00
2023-04-29T11:27:32.273Z,1155.00
2023-04-29T11:28:32.239Z,1164.00
2023-04-29T11:29:32.251Z,1161.00
2023-04-29T11:30:32.225Z,1160.00
2023-04-29T11:31:32.343Z,1159.00
2023-04-29T11:32:32.366Z,1162.00
2023-04-29T11:33:32.288Z,1161.00
2023-04-29T11:34:32.219Z,1170.00
2023-04-29T11:35:32.231Z,1171.00
2023-04-29T11:36:32.223Z,1168.00
2023-04-29T11:37:32.228Z,1171.00
2023-04-29T11:38:32.244Z,1169.00
2023-04-29T11:39:32.219Z,1170.00
2023-04-29T11:40:32.229Z,1173.00
2023-04-29T11:41:32.218Z,1165.00
2023-04-29T11:42:32.230Z,1164.00
2023-04-29T11:43:32.230Z,1157.00
2023-04-29T11:44:32.210Z,1169.00
2023-04-29T11:45:32.197Z,1163.00
2023-04-29T11:46:32.245Z,1167.00
2023-04-29T11:47:32.281Z,1156.00
2023-04-29T11:48:32.283Z,1164.00
2023-04-29T11:49:32.289Z,1159.00
2023-04-29T11:50:32.317Z,1148.00
2023-04-29T11:51:32.368Z,1155.00
2023-04-29T11:52:32.371Z,1147.00
2023-04-29T11:53:32.417Z,1150.00
2023-04-29T11:54:32.415Z,1155.00
2023-04-29T11:55:32.464Z,1147.00
2023-04-29T11:56:32.470Z,1157.00
2023-04-29T11:57:32.472Z,1150.00
2023-04-29T11:58:32.516Z,1146.00
2023-04-29T11:59:32.513Z,1156.00
2023-04-29T12:00:32.517Z,1151.00
2023-04-29T12:01:32.580Z,1158.00
2023-04-29T12:02:32.883Z,1159.00
2023-04-29T12:03:32.670Z,1158.00
2023-04-29T12:04:32.784Z,1159.00
2023-04-29T12:05:32.666Z,1157.00